createdAt,value
2018-11-28T00:01:43.902Z,99064.33
2018-11-28T00:04:12.198Z,99071.37
2018-11-28T00:06:40.633Z,99068.45
2018-11-28T00:09:09.643Z,99065.27
2018-11-28T00:11:37.713Z,99049.88
2018-11-28T00:14:06.128Z,99037.50
2018-11-28T00:16:34.340Z,99040.39
2018-11-28T00:19:02.461Z,99045.27
2018-11-28T00:21:30.949Z,99048.95
2018-11-28T00:23:59.450Z,99057.45
2018-11-28T00:26:27.645Z,99073.66
2018-11-28T00:28:55.747Z,99081.14
2018-11-28T00:31:24.237Z,99073.48
2018-11-28T00:33:52.606Z,99082.17
2018-11-28T00:36:20.854Z,99091.39
2018-11-28T00:38:49.073Z,99087.59
2018-11-28T00:41:17.517Z,99089.81
2018-11-28T00:43:45.669Z,99094.82
2018-11-28T00:46:13.789Z,99108.84
2018-11-28T00:48:42.131Z,99110.41
2018-11-28T00:51:10.285Z,99113.69
2018-11-28T00:53:38.502Z,99113.83
2018-11-28T00:56:06.738Z,99114.08
2018-11-28T00:58:34.937Z,99117.47
2018-11-28T01:01:02.729Z,99115.72
2018-11-28T01:03:30.563Z,99112.62
2018-11-28T01:05:58.328Z,99123.45
2018-11-28T01:08:26.506Z,99125.74
2018-11-28T01:10:55.006Z,99122.28
2018-11-28T01:13:23.277Z,99126.20
2018-11-28T01:15:51.804Z,99126.20
2018-11-28T01:18:20.274Z,99124.53
2018-11-28T01:20:48.762Z,99127.36
2018-11-28T01:23:17.026Z,99114.83
2018-11-28T01:25:45.181Z,99120.03
2018-11-28T01:28:13.395Z,99109.20
2018-11-28T01:30:41.618Z,99114.16
2018-11-28T01:33:09.995Z,99114.12
2018-11-28T01:35:38.446Z,99122.14
2018-11-28T01:38:07.164Z,99130.57
2018-11-28T01:40:35.354Z,99138.88
2018-11-28T01:43:03.834Z,99142.02
2018-11-28T01:45:32.080Z,99138.31
2018-11-28T01:47:59.849Z,99145.91
2018-11-28T01:50:27.638Z,99133.75
2018-11-28T01:52:55.465Z,99136.96
2018-11-28T01:55:23.240Z,99149.12
2018-11-28T01:57:51.713Z,99148.17
2018-11-28T02:00:23.672Z,99152.91
2018-11-28T02:02:56.670Z,99155.75
2018-11-28T02:05:24.891Z,99138.92
2018-11-28T02:07:53.318Z,99116.22
2018-11-28T02:10:21.905Z,99129.55
2018-11-28T02:12:49.910Z,99124.74
2018-11-28T02:15:19.402Z,99115.06
2018-11-28T02:17:47.561Z,99125.58
2018-11-28T02:20:16.261Z,99135.55
2018-11-28T02:22:44.566Z,99139.20
2018-11-28T02:25:14.679Z,99149.89
2018-11-28T02:27:42.694Z,99159.91
2018-11-28T02:30:12.835Z,99156.93
2018-11-28T02:32:41.050Z,99158.77
2018-11-28T02:35:10.942Z,99157.76
2018-11-28T02:37:39.166Z,99155.41
2018-11-28T02:40:09.318Z,99159.58
2018-11-28T02:42:37.408Z,99175.73
2018-11-28T02:45:16.677Z,99182.09
2018-11-28T02:47:44.971Z,99190.94
2018-11-28T02:50:13.075Z,99202.98
2018-11-28T02:52:41.616Z,99193.61
2018-11-28T02:55:11.213Z,99187.95
2018-11-28T02:57:39.513Z,99191.11
2018-11-28T03:00:12.618Z,99193.28
2018-11-28T03:02:40.595Z,99187.60
2018-11-28T03:05:09.896Z,99194.27
2018-11-28T03:07:38.206Z,99198.61
2018-11-28T03:10:10.767Z,99205.66
2018-11-28T03:12:38.854Z,99211.13
2018-11-28T03:15:09.081Z,99210.66
2018-11-28T03:17:37.034Z,99213.33
2018-11-28T03:20:06.437Z,99228.59
2018-11-28T03:22:34.594Z,99227.62
2018-11-28T03:25:02.865Z,99234.16
2018-11-28T03:27:31.365Z,99243.28
2018-11-28T03:29:59.670Z,99244.68
2018-11-28T03:32:28.126Z,99246.65
2018-11-28T03:34:56.395Z,99240.48
2018-11-28T03:37:24.805Z,99232.69
2018-11-28T03:39:52.691Z,99248.12
2018-11-28T03:42:20.850Z,99244.48
2018-11-28T03:44:49.254Z,99246.87
2018-11-28T03:47:17.734Z,99250.09
2018-11-28T03:49:45.994Z,99260.56
2018-11-28T03:52:14.330Z,99265.94
2018-11-28T03:54:42.542Z,99267.23
2018-11-28T03:57:10.650Z,99266.69
2018-11-28T03:59:38.920Z,99274.89
2018-11-28T04:02:07.153Z,99274.20
2018-11-28T04:04:35.326Z,99275.52
2018-11-28T04:07:03.063Z,99276.49
2018-11-28T04:09:30.846Z,99281.19
2018-11-28T04:11:58.679Z,99284.91
2018-11-28T04:14:26.434Z,99285.75
2018-11-28T04:16:54.190Z,99281.33
2018-11-28T04:19:21.994Z,99280.72
2018-11-28T04:21:49.773Z,99280.42
2018-11-28T04:24:17.554Z,99278.75
2018-11-28T04:26:45.302Z,99289.56
2018-11-28T04:29:13.065Z,99293.66
2018-11-28T04:31:40.814Z,99292.96
2018-11-28T04:34:08.541Z,99306.66
2018-11-28T04:36:36.305Z,99303.75
2018-11-28T04:39:06.173Z,99310.36
2018-11-28T04:41:33.978Z,99319.91
2018-11-28T04:44:01.718Z,99334.09
2018-11-28T04:46:29.442Z,99338.77
2018-11-28T04:48:57.270Z,99346.08
2018-11-28T04:51:25.014Z,99352.28
2018-11-28T04:53:52.813Z,99358.64
2018-11-28T04:56:20.605Z,99368.48
2018-11-28T04:58:48.345Z,99375.88
2018-11-28T05:01:16.121Z,99379.64
2018-11-28T05:03:43.972Z,99381.95
2018-11-28T05:06:16.306Z,99397.02
2018-11-28T05:08:44.088Z,99403.97
2018-11-28T05:11:11.914Z,99401.95
2018-11-28T05:13:39.711Z,99402.56
2018-11-28T05:16:07.486Z,99396.20
2018-11-28T05:18:35.235Z,99397.94
2018-11-28T05:21:02.999Z,99403.18
2018-11-28T05:23:30.850Z,99410.86
2018-11-28T05:25:58.654Z,99416.77
2018-11-28T05:28:26.404Z,99425.28
2018-11-28T05:30:54.243Z,99426.92
2018-11-28T05:33:22.070Z,99423.94
2018-11-28T05:35:49.868Z,99431.83
2018-11-28T05:38:17.645Z,99434.46
2018-11-28T05:40:45.529Z,99433.77
2018-11-28T05:43:13.332Z,99438.70
2018-11-28T05:45:41.117Z,99438.34
2018-11-28T05:48:08.816Z,99441.86
2018-11-28T05:50:36.628Z,99448.55
2018-11-28T05:53:04.558Z,99457.42
2018-11-28T05:55:32.374Z,99461.41
2018-11-28T05:58:00.184Z,99466.50
2018-11-28T06:00:34.205Z,99470.73
2018-11-28T06:03:02.054Z,99475.16
2018-11-28T06:05:29.829Z,99477.77
2018-11-28T06:07:57.658Z,99484.96
2018-11-28T06:10:25.441Z,99482.02
2018-11-28T06:12:53.257Z,99483.83
2018-11-28T06:15:21.629Z,99490.09
2018-11-28T06:17:49.389Z,99485.97
2018-11-28T06:20:17.182Z,99498.73
2018-11-28T06:22:45.057Z,99499.05
2018-11-28T06:25:16.181Z,99514.25
2018-11-28T06:27:41.749Z,99521.09
2018-11-28T06:30:11.650Z,99519.63
2018-11-28T06:32:39.505Z,99527.64
2018-11-28T06:35:08.109Z,99534.62
2018-11-28T06:37:36.203Z,99539.20
2018-11-28T06:40:05.139Z,99556.51
2018-11-28T06:42:32.914Z,99559.05
2018-11-28T06:45:00.789Z,99568.09
2018-11-28T06:47:29.070Z,99575.83
2018-11-28T06:49:56.567Z,99583.97
2018-11-28T06:52:24.389Z,99582.48
2018-11-28T06:54:52.146Z,99587.17
2018-11-28T06:57:19.986Z,99591.69
2018-11-28T06:59:47.800Z,99581.02
2018-11-28T07:02:15.605Z,99591.82
2018-11-28T07:04:43.333Z,99597.45
2018-11-28T07:07:11.150Z,99602.45
2018-11-28T07:09:38.986Z,99609.65
2018-11-28T07:12:06.819Z,99615.56
2018-11-28T07:14:34.578Z,99622.41
2018-11-28T07:17:02.381Z,99626.53
2018-11-28T07:19:30.198Z,99634.20
2018-11-28T07:21:58.018Z,99634.26
2018-11-28T07:24:25.822Z,99644.06
2018-11-28T07:26:53.586Z,99651.34
2018-11-28T07:29:21.374Z,99657.45
2018-11-28T07:31:49.201Z,99672.92
2018-11-28T07:34:16.981Z,99678.38
2018-11-28T07:36:44.734Z,99671.84
2018-11-28T07:39:12.514Z,99681.98
2018-11-28T07:41:40.261Z,99687.38
2018-11-28T07:44:08.027Z,99689.73
2018-11-28T07:46:35.849Z,99696.36
2018-11-28T07:49:03.565Z,99697.97
2018-11-28T07:51:31.345Z,99699.16
2018-11-28T07:53:59.070Z,99709.95
2018-11-28T07:56:26.847Z,99708.93
2018-11-28T07:58:54.636Z,99713.21
2018-11-28T08:01:22.484Z,99729.81
2018-11-28T08:03:50.391Z,99725.43
2018-11-28T08:06:18.201Z,99724.70
2018-11-28T08:08:45.978Z,99730.12
2018-11-28T08:11:13.685Z,99734.27
2018-11-28T08:13:41.432Z,99741.29
2018-11-28T08:16:09.231Z,99747.88
2018-11-28T08:18:36.972Z,99747.97
2018-11-28T08:21:05.240Z,99756.95
2018-11-28T08:23:33.002Z,99764.74
2018-11-28T08:26:00.751Z,99765.32
2018-11-28T08:28:28.671Z,99772.34
2018-11-28T08:30:56.444Z,99780.95
2018-11-28T08:33:24.208Z,99779.41
2018-11-28T08:35:51.992Z,99788.47
2018-11-28T08:38:19.818Z,99784.39
2018-11-28T08:40:47.689Z,99787.97
2018-11-28T08:43:15.543Z,99796.39
2018-11-28T08:45:43.405Z,99802.97
2018-11-28T08:48:15.853Z,99807.38
2018-11-28T08:50:43.643Z,99813.39
2018-11-28T08:53:11.486Z,99824.27
2018-11-28T08:55:39.294Z,99828.14
2018-11-28T08:58:07.161Z,99834.29
2018-11-28T09:00:35.569Z,99834.84
2018-11-28T09:03:03.379Z,99838.34
2018-11-28T09:05:31.174Z,99851.98
2018-11-28T09:07:58.926Z,99849.84
2018-11-28T09:10:26.769Z,99847.06
2018-11-28T09:12:54.481Z,99853.77
2018-11-28T09:15:26.418Z,99856.49
2018-11-28T09:17:54.571Z,99851.95
2018-11-28T09:20:22.330Z,99851.70
2018-11-28T09:22:50.121Z,99854.16
2018-11-28T09:25:18.618Z,99855.87
2018-11-28T09:27:50.494Z,99859.17
2018-11-28T09:30:19.114Z,99860.72
2018-11-28T09:32:47.905Z,99865.10
2018-11-28T09:35:16.167Z,99879.16
2018-11-28T09:37:45.722Z,99883.82
2018-11-28T09:40:26.678Z,99886.30
2018-11-28T09:42:55.625Z,99877.73
2018-11-28T09:45:23.497Z,99873.80
2018-11-28T09:47:51.274Z,99880.81
2018-11-28T09:50:21.805Z,99885.16
2018-11-28T09:52:49.706Z,99880.20
2018-11-28T09:55:21.303Z,99886.28
2018-11-28T09:57:49.253Z,99889.01
2018-11-28T10:00:19.771Z,99891.72
2018-11-28T10:02:48.009Z,99894.86
2018-11-28T10:05:17.328Z,99905.54
2018-11-28T10:07:45.161Z,99905.99
2018-11-28T10:10:13.680Z,99907.53
2018-11-28T10:12:41.532Z,99908.25
2018-11-28T10:15:13.984Z,99904.23
2018-11-28T10:17:41.848Z,99918.32
2018-11-28T10:20:11.051Z,99919.95
2018-11-28T10:22:39.069Z,99921.73
2018-11-28T10:25:15.549Z,99922.70
2018-11-28T10:27:44.452Z,99925.83
2018-11-28T10:30:16.370Z,99937.40
2018-11-28T10:32:44.287Z,99941.33
2018-11-28T10:35:12.194Z,99943.72
2018-11-28T10:37:40.044Z,99950.34
2018-11-28T10:40:13.719Z,99956.96
2018-11-28T10:42:41.714Z,99959.59
2018-11-28T10:45:11.273Z,99965.13
2018-11-28T10:47:39.142Z,99967.55
2018-11-28T10:50:09.303Z,99968.18
2018-11-28T10:52:37.202Z,99976.28
2018-11-28T10:55:06.595Z,99976.28
2018-11-28T10:57:34.420Z,99980.34
2018-11-28T11:00:02.278Z,99978.84
2018-11-28T11:02:35.527Z,99985.45
2018-11-28T11:05:09.046Z,99992.77
2018-11-28T11:10:21.001Z,99993.59
2018-11-28T11:12:54.381Z,100001.66
2018-11-28T11:15:22.301Z,100003.53
2018-11-28T11:17:50.034Z,100003.05
2018-11-28T11:20:17.927Z,100008.02
2018-11-28T11:22:45.754Z,100010.88
2018-11-28T11:25:13.616Z,100013.83
2018-11-28T11:27:41.437Z,100019.05
2018-11-28T11:30:10.507Z,100027.17
2018-11-28T11:32:38.329Z,100029.21
2018-11-28T11:35:08.355Z,100039.59
2018-11-28T11:37:37.226Z,100044.40
2018-11-28T11:40:07.985Z,100047.33
2018-11-28T11:42:35.762Z,100052.84
2018-11-28T11:45:03.677Z,100051.86
2018-11-28T11:47:31.527Z,100063.59
2018-11-28T11:49:59.327Z,100067.20
2018-11-28T11:52:27.597Z,100071.79
2018-11-28T11:54:55.058Z,100075.88
2018-11-28T11:57:22.916Z,100076.48
2018-11-28T11:59:50.771Z,100082.14
2018-11-28T12:02:18.577Z,100084.22
2018-11-28T12:04:46.321Z,100096.03
2018-11-28T12:07:14.138Z,100094.09
2018-11-28T12:09:41.923Z,100104.31
2018-11-28T12:12:09.805Z,100107.66
2018-11-28T12:14:37.554Z,100110.70
2018-11-28T12:17:06.036Z,100110.80
2018-11-28T12:19:33.307Z,100110.17
2018-11-28T12:22:01.126Z,100112.05
2018-11-28T12:24:29.172Z,100122.05
2018-11-28T12:26:56.867Z,100118.77
2018-11-28T12:29:24.646Z,100124.53
2018-11-28T12:31:52.497Z,100127.78
2018-11-28T12:34:20.282Z,100140.62
2018-11-28T12:36:47.989Z,100144.98
2018-11-28T12:39:15.852Z,100158.20
2018-11-28T12:41:43.635Z,100151.00
2018-11-28T12:44:11.439Z,100156.83
2018-11-28T12:46:39.243Z,100168.12
2018-11-28T12:49:07.155Z,100174.12
2018-11-28T12:51:34.875Z,100175.83
2018-11-28T12:54:02.695Z,100181.28
2018-11-28T12:56:30.502Z,100183.81
2018-11-28T12:58:58.260Z,100188.03
2018-11-28T13:01:26.110Z,100194.19
2018-11-28T13:03:53.929Z,100197.71
2018-11-28T13:06:21.637Z,100198.14
2018-11-28T13:08:49.441Z,100202.52
2018-11-28T13:11:17.229Z,100204.83
2018-11-28T13:13:45.054Z,100213.52
2018-11-28T13:16:12.865Z,100219.99
2018-11-28T13:18:40.660Z,100216.52
2018-11-28T13:21:09.354Z,100224.08
2018-11-28T13:23:36.266Z,100227.77
2018-11-28T13:26:04.285Z,100232.41
2018-11-28T13:28:32.066Z,100237.04
2018-11-28T13:30:59.833Z,100250.55
2018-11-28T13:33:27.653Z,100256.80
2018-11-28T13:35:55.483Z,100266.17
2018-11-28T13:38:23.270Z,100263.39
2018-11-28T13:40:51.102Z,100264.16
2018-11-28T13:43:18.858Z,100268.98
2018-11-28T13:45:47.846Z,100274.73
2018-11-28T13:48:16.220Z,100273.42
2018-11-28T13:50:44.037Z,100280.45
2018-11-28T13:53:15.985Z,100286.84
2018-11-28T13:56:30.150Z,100288.29
2018-11-28T13:58:16.265Z,100293.84
2018-11-28T14:00:43.991Z,100297.45
2018-11-28T14:03:11.798Z,100299.41
2018-11-28T14:05:39.665Z,100293.77
2018-11-28T14:08:07.455Z,100304.84
2018-11-28T14:10:35.259Z,100308.83
2018-11-28T14:13:03.009Z,100308.70
2018-11-28T14:15:30.912Z,100308.66
2018-11-28T14:17:59.765Z,100309.81
2018-11-28T14:20:27.582Z,100315.13
2018-11-28T14:22:55.397Z,100320.98
2018-11-28T14:25:23.914Z,100327.12
2018-11-28T14:27:51.464Z,100338.87
2018-11-28T14:30:22.040Z,100341.23
2018-11-28T14:32:50.452Z,100343.38
2018-11-28T14:35:18.495Z,100346.24
2018-11-28T14:37:46.335Z,100350.52
2018-11-28T14:40:15.978Z,100351.36
2018-11-28T14:42:44.893Z,100355.58
2018-11-28T14:45:14.566Z,100364.33
2018-11-28T14:47:42.499Z,100368.23
2018-11-28T14:50:16.678Z,100374.29
2018-11-28T14:52:44.618Z,100372.70
2018-11-28T14:55:13.646Z,100382.28
2018-11-28T14:57:41.414Z,100388.48
2018-11-28T15:00:11.053Z,100388.20
2018-11-28T15:02:38.947Z,100390.84
2018-11-28T15:05:13.021Z,100390.73
2018-11-28T15:07:40.749Z,100400.95
2018-11-28T15:10:08.658Z,100401.40
2018-11-28T15:12:36.462Z,100403.06
2018-11-28T15:15:04.761Z,100402.84
2018-11-28T15:17:32.464Z,100404.69
2018-11-28T15:20:00.268Z,100407.98
2018-11-28T15:22:28.017Z,100412.48
2018-11-28T15:24:55.757Z,100416.37
2018-11-28T15:27:23.625Z,100422.41
2018-11-28T15:29:51.405Z,100422.38
2018-11-28T15:32:19.186Z,100429.53
2018-11-28T15:34:46.925Z,100430.09
2018-11-28T15:37:14.682Z,100429.91
2018-11-28T15:39:42.475Z,100438.98
2018-11-28T15:42:10.324Z,100442.03
2018-11-28T15:44:38.093Z,100441.56
2018-11-28T15:47:05.937Z,100452.30
2018-11-28T15:49:33.734Z,100466.20
2018-11-28T15:52:01.551Z,100462.11
2018-11-28T15:54:29.430Z,100463.87
2018-11-28T15:56:57.182Z,100483.14
2018-11-28T15:59:24.945Z,100482.23
2018-11-28T16:01:52.709Z,100491.23
2018-11-28T16:04:20.532Z,100498.55
2018-11-28T16:06:48.278Z,100510.67
2018-11-28T16:09:21.485Z,100510.66
2018-11-28T16:11:49.277Z,100516.20
2018-11-28T16:14:17.039Z,100518.73
2018-11-28T16:16:44.829Z,100519.91
2018-11-28T16:19:12.622Z,100522.67
2018-11-28T16:21:40.418Z,100525.86
2018-11-28T16:24:08.237Z,100534.72
2018-11-28T16:26:35.962Z,100536.95
2018-11-28T16:29:03.736Z,100549.19
2018-11-28T16:31:31.626Z,100541.97
2018-11-28T16:33:59.365Z,100543.20
2018-11-28T16:36:27.153Z,100554.59
2018-11-28T16:38:54.981Z,100558.38
2018-11-28T16:41:22.782Z,100558.64
2018-11-28T16:43:50.496Z,100556.18
2018-11-28T16:46:18.237Z,100555.81
2018-11-28T16:48:46.042Z,100560.09
2018-11-28T16:51:13.791Z,100566.68
2018-11-28T16:53:41.599Z,100570.51
2018-11-28T16:56:09.340Z,100572.87
2018-11-28T16:58:37.180Z,100575.48
2018-11-28T17:01:05.258Z,100570.97
2018-11-28T17:03:33.005Z,100581.42
2018-11-28T17:06:00.794Z,100586.61
2018-11-28T17:08:28.614Z,100589.69
2018-11-28T17:10:56.439Z,100593.03
2018-11-28T17:13:24.254Z,100602.00
2018-11-28T17:15:52.015Z,100604.92
2018-11-28T17:18:19.848Z,100604.22
2018-11-28T17:20:47.645Z,100604.22
2018-11-28T17:23:15.466Z,100611.02
2018-11-28T17:25:43.246Z,100613.47
2018-11-28T17:28:11.051Z,100610.42
2018-11-28T17:30:38.934Z,100618.08
2018-11-28T17:33:06.820Z,100621.86
2018-11-28T17:35:34.605Z,100628.63
2018-11-28T17:38:02.439Z,100625.85
2018-11-28T17:40:30.268Z,100631.72
2018-11-28T17:42:58.945Z,100632.41
2018-11-28T17:45:27.468Z,100631.64
2018-11-28T17:47:55.261Z,100634.67
2018-11-28T17:50:24.136Z,100637.84
2018-11-28T17:53:00.494Z,100649.98
2018-11-28T17:55:29.681Z,100650.49
2018-11-28T17:57:57.453Z,100656.07
2018-11-28T18:00:25.250Z,100658.13
2018-11-28T18:02:53.109Z,100660.86
2018-11-28T18:05:20.884Z,100664.55
2018-11-28T18:07:48.645Z,100663.75
2018-11-28T18:10:18.554Z,100674.59
2018-11-28T18:12:57.401Z,100675.92
2018-11-28T18:15:25.282Z,100678.73
2018-11-28T18:17:54.516Z,100683.44
2018-11-28T18:20:22.329Z,100686.22
2018-11-28T18:22:50.148Z,100685.52
2018-11-28T18:25:18.043Z,100696.58
2018-11-28T18:27:45.982Z,100696.72
2018-11-28T18:30:13.869Z,100697.52
2018-11-28T18:32:41.617Z,100704.04
2018-11-28T18:35:10.769Z,100710.91
2018-11-28T18:37:38.582Z,100710.85
2018-11-28T18:40:08.730Z,100715.30
2018-11-28T18:42:36.584Z,100717.98
2018-11-28T18:45:07.374Z,100721.85
2018-11-28T18:47:35.200Z,100731.56
2018-11-28T18:50:03.447Z,100730.69
2018-11-28T18:52:31.208Z,100740.66
2018-11-28T18:54:59.079Z,100744.80
2018-11-28T18:57:26.906Z,100745.06
2018-11-28T18:59:54.650Z,100743.78
2018-11-28T19:02:22.446Z,100751.75
2018-11-28T19:04:50.236Z,100752.78
2018-11-28T19:07:18.018Z,100760.20
2018-11-28T19:09:49.463Z,100753.97
2018-11-28T19:12:17.857Z,100751.20
2018-11-28T19:14:45.910Z,100767.08
2018-11-28T19:17:13.559Z,100772.62
2018-11-28T19:19:41.469Z,100784.89
2018-11-28T19:22:09.743Z,100782.45
2018-11-28T19:24:37.515Z,100781.36
2018-11-28T19:27:05.871Z,100790.98
2018-11-28T19:29:33.726Z,100799.36
2018-11-28T19:32:01.491Z,100806.30
2018-11-28T19:34:29.376Z,100797.41
2018-11-28T19:36:57.209Z,100808.25
2018-11-28T19:39:25.005Z,100818.54
2018-11-28T19:41:52.806Z,100818.41
2018-11-28T19:44:20.616Z,100825.05
2018-11-28T19:46:48.405Z,100832.97
2018-11-28T19:49:16.189Z,100830.46
2018-11-28T19:51:43.958Z,100834.24
2018-11-28T19:54:11.753Z,100827.71
2018-11-28T19:56:39.613Z,100832.75
2018-11-28T19:59:07.426Z,100843.76
2018-11-28T20:01:35.222Z,100839.95
2018-11-28T20:04:03.099Z,100844.05
2018-11-28T20:06:30.918Z,100841.80
2018-11-28T20:08:58.797Z,100849.12
2018-11-28T20:11:26.681Z,100854.41
2018-11-28T20:13:54.506Z,100858.00
2018-11-28T20:16:22.324Z,100859.67
2018-11-28T20:18:50.373Z,100856.66
2018-11-28T20:21:18.048Z,100859.43
2018-11-28T20:23:45.822Z,100864.45
2018-11-28T20:26:13.677Z,100864.67
2018-11-28T20:28:41.441Z,100869.34
2018-11-28T20:31:09.157Z,100871.43
2018-11-28T20:33:36.912Z,100879.26
2018-11-28T20:36:06.158Z,100882.18
2018-11-28T20:38:34.575Z,100888.41
2018-11-28T20:41:02.448Z,100886.34
2018-11-28T20:43:30.236Z,100885.77
2018-11-28T20:45:58.038Z,100885.95
2018-11-28T20:48:25.778Z,100889.30
2018-11-28T20:50:53.622Z,100902.60
2018-11-28T20:53:21.844Z,100898.91
2018-11-28T20:55:49.731Z,100901.45
2018-11-28T20:58:17.546Z,100908.21
2018-11-28T21:00:45.414Z,100918.13
2018-11-28T21:03:13.301Z,100921.73
2018-11-28T21:05:41.733Z,100917.36
2018-11-28T21:08:09.853Z,100918.80
2018-11-28T21:10:39.411Z,100921.84
2018-11-28T21:13:08.453Z,100927.68
2018-11-28T21:15:36.269Z,100921.52
2018-11-28T21:18:04.253Z,100927.21
2018-11-28T21:20:32.032Z,100931.84
2018-11-28T21:23:02.203Z,100938.36
2018-11-28T21:25:30.010Z,100932.30
2018-11-28T21:27:57.850Z,100943.13
2018-11-28T21:30:25.686Z,100950.59
2018-11-28T21:32:54.218Z,100947.10
2018-11-28T21:35:30.677Z,100948.14
2018-11-28T21:37:58.573Z,100953.36
2018-11-28T21:40:26.438Z,100955.09
2018-11-28T21:42:54.241Z,100957.20
2018-11-28T21:45:22.722Z,100965.73
2018-11-28T21:47:50.597Z,100965.84
2018-11-28T21:50:19.078Z,100964.66
2018-11-28T21:52:47.162Z,100972.63
2018-11-28T21:55:16.870Z,100972.95
2018-11-28T21:57:44.732Z,100975.87
2018-11-28T22:00:13.922Z,100983.44
2018-11-28T22:02:41.725Z,100977.17
2018-11-28T22:05:10.686Z,100979.70
2018-11-28T22:07:38.481Z,100983.57
2018-11-28T22:10:14.629Z,100989.69
2018-11-28T22:12:42.566Z,100991.53
2018-11-28T22:15:15.006Z,100996.67
2018-11-28T22:17:59.525Z,101000.50
2018-11-28T22:20:27.517Z,101001.44
2018-11-28T22:22:55.298Z,101004.29
2018-11-28T22:25:24.768Z,101006.64
2018-11-28T22:27:52.674Z,101001.61
2018-11-28T22:30:23.333Z,101005.98
2018-11-28T22:32:51.189Z,101007.13
2018-11-28T22:35:18.933Z,101006.17
2018-11-28T22:37:46.724Z,101005.89
2018-11-28T22:40:22.257Z,101015.38
2018-11-28T22:42:50.128Z,101014.88
2018-11-28T22:45:20.033Z,101016.12
2018-11-28T22:47:47.893Z,101021.13
2018-11-28T22:50:15.714Z,101026.05
2018-11-28T22:52:43.434Z,101022.67
2018-11-28T22:55:12.246Z,101024.44
2018-11-28T22:57:40.005Z,101024.17
2018-11-28T23:00:13.982Z,101028.80
2018-11-28T23:02:53.439Z,101028.81
2018-11-28T23:05:22.535Z,101023.95
2018-11-28T23:07:50.386Z,101022.27
2018-11-28T23:10:18.183Z,101035.05
2018-11-28T23:12:46.054Z,101033.09
2018-11-28T23:15:14.010Z,101038.56
2018-11-28T23:17:41.804Z,101042.45
2018-11-28T23:20:10.013Z,101046.33
2018-11-28T23:22:37.817Z,101046.23
2018-11-28T23:25:07.677Z,101045.56
2018-11-28T23:27:35.505Z,101044.62
2018-11-28T23:30:03.514Z,101050.42
2018-11-28T23:32:31.284Z,101051.34
2018-11-28T23:34:59.075Z,101049.53
2018-11-28T23:37:26.890Z,101056.67
2018-11-28T23:39:54.715Z,101057.94
2018-11-28T23:42:22.577Z,101055.62
2018-11-28T23:44:50.390Z,101057.23
2018-11-28T23:47:18.195Z,101063.38
2018-11-28T23:49:46.025Z,101067.30
2018-11-28T23:52:13.843Z,101068.29
2018-11-28T23:54:41.606Z,101067.66
2018-11-28T23:57:09.437Z,101077.03
2018-11-28T23:59:37.201Z,101079.09
